Main page
METAR-TAF:

METAR-TAF

Airports :

Sardar Vallabhbhai Patel International Airport

Ahmedabad, India

latitude: 23-04N, longitude: 072-38E, elevation: 55 m

Current weather observation

The report was made 36 minutes ago, at 17:00 UTC
Calm wind
Temperature 28°C
Humidity 22%
Pressure 1013 hPa
Visibility: 4000 m
smoke

METAR: VAAH 221700Z 00000KT 4000 FU NSC 28/04 Q1013 NOSIG

Time: 23:06 (17:36 UTC)

Forecast

The report was made 36 minutes ago, at 17:00 UTC
Forecast valid from 22 at 18 UTC to 23 at 03 UTC
Wind 3 kt from variable directions
Visibility: 4000 m
smoke
Becoming
from 23 at 01 UTC to 23 at 03 UTC
Wind 5 kt from the North
Visibility: 2500 m

TAF: VAAH 221700Z 2218/2303 VRB03KT 4000 FU NSC BECMG 2301/2303 01005KT 2500

Weather observations and forecasts of more than 4000 airports (METAR and TAF reports).

The available stations are represented by yellow and red dots on the map.

Hover mouse over dot to see the name of the station.

Then click to see weather observations and forecasts.

To change the map : click on the green buttons with a black cross to zoom in, on the green button with a dash to zoom out, or on the green arrows for adjacent maps.


METAR-TAF: